createdAt,value
2023-01-07T00:02:00.000Z,32.43
2023-01-07T00:04:28.343Z,31.87
2023-01-07T00:06:56.764Z,32.17
2023-01-07T00:09:26.655Z,33.57
2023-01-07T00:11:55.095Z,33.10
2023-01-07T00:14:23.396Z,36.03
2023-01-07T00:16:51.845Z,32.63
2023-01-07T00:19:21.779Z,32.10
2023-01-07T00:21:50.206Z,31.20
2023-01-07T00:24:18.801Z,32.03
2023-01-07T00:26:48.711Z,33.77
2023-01-07T00:29:18.724Z,32.43
2023-01-07T00:31:47.153Z,33.53
2023-01-07T00:34:16.011Z,34.87
2023-01-07T00:36:45.146Z,36.53
2023-01-07T00:39:15.502Z,38.80
2023-01-07T00:42:05.630Z,41.70
2023-01-07T00:44:35.663Z,40.80
2023-01-07T00:47:03.932Z,39.43
2023-01-07T00:49:32.291Z,38.10
2023-01-07T00:52:00.640Z,41.03
2023-01-07T00:54:29.022Z,41.13
2023-01-07T00:56:57.353Z,41.03
2023-01-07T00:59:25.639Z,42.07
2023-01-07T01:01:55.792Z,42.00
2023-01-07T01:04:24.194Z,43.93
2023-01-07T01:06:52.556Z,45.47
2023-01-07T01:09:22.450Z,44.83
2023-01-07T01:11:50.878Z,44.87
2023-01-07T01:14:19.224Z,45.47
2023-01-07T01:16:47.684Z,45.70
2023-01-07T01:19:18.133Z,43.17
2023-01-07T01:21:46.496Z,44.87
2023-01-07T01:24:15.020Z,41.87
2023-01-07T01:26:43.266Z,44.13
2023-01-07T01:29:11.640Z,41.37
2023-01-07T01:31:39.957Z,39.50
2023-01-07T01:34:08.240Z,39.17
2023-01-07T01:36:38.882Z,40.20
2023-01-07T01:39:07.163Z,39.67
2023-01-07T01:41:35.538Z,38.90
2023-01-07T01:44:03.899Z,37.23
2023-01-07T01:46:34.759Z,36.80
2023-01-07T01:49:05.728Z,35.20
2023-01-07T01:51:36.272Z,32.17
2023-01-07T01:54:06.724Z,33.70
2023-01-07T01:56:35.882Z,32.73
2023-01-07T01:59:05.964Z,34.87
2023-01-07T02:01:34.740Z,35.03
2023-01-07T02:04:03.195Z,30.90
2023-01-07T02:06:32.303Z,37.30
2023-01-07T02:09:00.628Z,34.83
2023-01-07T02:11:34.680Z,32.17
2023-01-07T02:14:11.827Z,32.17
2023-01-07T02:16:43.275Z,30.33
2023-01-07T02:19:36.898Z,32.90
2023-01-07T02:22:07.846Z,28.47
2023-01-07T02:25:03.834Z,30.57
2023-01-07T02:27:52.850Z,28.93
2023-01-07T02:30:46.354Z,29.40
2023-01-07T02:33:23.508Z,27.50
2023-01-07T02:36:11.143Z,29.43
2023-01-07T02:38:44.008Z,32.33
2023-01-07T02:41:16.324Z,31.87
2023-01-07T02:43:50.193Z,32.03
2023-01-07T02:46:20.870Z,28.30
2023-01-07T02:48:50.616Z,30.97
2023-01-07T02:51:18.931Z,30.07
2023-01-07T02:53:48.033Z,28.97
2023-01-07T02:56:27.634Z,32.00
2023-01-07T02:59:12.744Z,30.43
2023-01-07T03:01:58.701Z,30.10
2023-01-07T03:04:44.688Z,28.40
2023-01-07T03:07:22.483Z,29.10
2023-01-07T03:09:54.469Z,27.70
2023-01-07T03:12:24.592Z,27.97
2023-01-07T03:14:56.024Z,30.83
2023-01-07T03:17:27.140Z,30.33
2023-01-07T03:19:57.774Z,29.23
2023-01-07T03:22:27.087Z,31.10
2023-01-07T03:24:56.559Z,27.80
2023-01-07T03:27:24.882Z,29.57
2023-01-07T03:29:53.210Z,28.53
2023-01-07T03:32:25.143Z,29.30
2023-01-07T03:34:53.448Z,30.17
2023-01-07T03:37:23.798Z,30.43
2023-01-07T03:39:52.215Z,32.00
2023-01-07T03:42:40.015Z,31.93
2023-01-07T03:45:12.856Z,32.93
2023-01-07T03:47:42.611Z,38.03
2023-01-07T03:50:11.136Z,30.90
2023-01-07T03:52:41.091Z,31.90
2023-01-07T03:55:09.908Z,30.30
2023-01-07T03:57:38.243Z,28.67
2023-01-07T04:00:07.830Z,29.30
2023-01-07T04:02:36.185Z,29.17
2023-01-07T04:05:04.585Z,31.27
2023-01-07T04:07:32.958Z,27.53
2023-01-07T04:10:02.642Z,28.80
2023-01-07T04:12:30.940Z,32.17
2023-01-07T04:14:59.434Z,30.77
2023-01-07T04:17:27.925Z,29.17
2023-01-07T04:19:56.246Z,30.57
2023-01-07T04:22:24.605Z,29.50
2023-01-07T04:24:52.862Z,27.10
2023-01-07T04:27:22.797Z,28.90
2023-01-07T04:29:51.073Z,29.20
2023-01-07T04:32:19.371Z,29.90
2023-01-07T04:34:47.631Z,29.43
2023-01-07T04:37:16.004Z,30.27
2023-01-07T04:39:44.268Z,32.83
2023-01-07T04:42:12.680Z,29.37
2023-01-07T04:44:42.410Z,29.33
2023-01-07T04:47:10.688Z,31.67
2023-01-07T04:49:38.989Z,32.00
2023-01-07T04:52:08.996Z,30.97
2023-01-07T04:54:37.282Z,30.73
2023-01-07T04:57:05.631Z,29.10
2023-01-07T04:59:33.946Z,29.50
2023-01-07T05:02:04.002Z,29.50
2023-01-07T05:04:32.405Z,31.17
2023-01-07T05:07:00.783Z,31.37
2023-01-07T05:09:29.085Z,30.50
2023-01-07T05:11:57.653Z,32.60
2023-01-07T05:14:25.928Z,34.37
2023-01-07T05:16:54.311Z,35.60
2023-01-07T05:19:24.021Z,33.90
2023-01-07T05:21:52.384Z,32.93
2023-01-07T05:24:20.690Z,35.23
2023-01-07T05:26:49.026Z,33.57
2023-01-07T05:29:17.342Z,36.33
2023-01-07T05:31:45.752Z,35.43
2023-01-07T05:34:14.085Z,36.80
2023-01-07T05:36:43.837Z,36.73
2023-01-07T05:39:12.304Z,39.13
2023-01-07T05:41:40.549Z,40.63
2023-01-07T05:44:08.994Z,41.93
2023-01-07T05:46:37.244Z,43.17
2023-01-07T05:49:05.504Z,42.57
2023-01-07T05:51:33.781Z,40.57
2023-01-07T05:54:03.524Z,38.70
2023-01-07T05:56:31.796Z,40.80
2023-01-07T05:59:00.100Z,39.40
2023-01-07T06:01:28.374Z,40.50
2023-01-07T06:03:56.774Z,38.63
2023-01-07T06:06:25.151Z,36.40
2023-01-07T06:08:53.503Z,37.80
2023-01-07T06:11:23.139Z,37.00
2023-01-07T06:13:51.390Z,42.33
2023-01-07T06:16:19.748Z,41.53
2023-01-07T06:18:48.102Z,43.47
2023-01-07T06:21:18.307Z,43.33
2023-01-07T06:23:46.889Z,43.90
2023-01-07T06:26:15.158Z,42.70
2023-01-07T06:28:44.957Z,43.93
2023-01-07T06:31:13.240Z,42.33
2023-01-07T06:33:41.781Z,42.67
2023-01-07T06:36:10.589Z,43.60
2023-01-07T06:38:38.942Z,44.13
2023-01-07T06:41:07.212Z,43.57
2023-01-07T06:43:35.516Z,41.70
2023-01-07T06:46:05.860Z,41.23
2023-01-07T06:48:34.314Z,41.60
2023-01-07T06:51:02.607Z,41.67
2023-01-07T06:53:30.905Z,41.63
2023-01-07T06:55:59.213Z,43.10
2023-01-07T06:58:27.667Z,43.30
2023-01-07T07:00:56.163Z,42.53
2023-01-07T07:03:26.004Z,40.03
2023-01-07T07:05:54.302Z,41.60
2023-01-07T07:08:22.835Z,41.80
2023-01-07T07:10:51.308Z,43.90
2023-01-07T07:13:19.612Z,50.83
2023-01-07T07:15:49.891Z,49.17
2023-01-07T07:18:18.269Z,49.23
2023-01-07T07:20:48.829Z,51.70
2023-01-07T07:23:17.102Z,49.83
2023-01-07T07:25:45.373Z,50.67
2023-01-07T07:28:13.714Z,51.07
2023-01-07T07:30:51.109Z,49.57
2023-01-07T07:33:20.118Z,47.60
2023-01-07T07:35:49.970Z,46.77
2023-01-07T07:38:19.190Z,39.93
2023-01-07T07:40:47.545Z,44.27
2023-01-07T07:43:16.125Z,43.53
2023-01-07T07:45:44.413Z,45.63
2023-01-07T07:48:14.311Z,42.73
2023-01-07T07:50:42.585Z,43.47
2023-01-07T07:53:12.259Z,41.77
2023-01-07T07:55:40.688Z,40.87
2023-01-07T07:58:09.092Z,43.87
2023-01-07T08:00:37.386Z,50.53
2023-01-07T08:03:05.899Z,44.80
2023-01-07T08:05:34.288Z,45.77
2023-01-07T08:08:02.611Z,47.53
2023-01-07T08:10:32.288Z,48.57
2023-01-07T08:13:00.691Z,45.83
2023-01-07T08:15:29.011Z,45.33
2023-01-07T08:18:00.897Z,50.00
2023-01-07T08:20:29.335Z,68.90
2023-01-07T08:22:59.674Z,64.10
2023-01-07T08:25:28.099Z,80.77
2023-01-07T08:27:57.889Z,80.77
2023-01-07T08:30:26.345Z,86.20
2023-01-07T08:32:55.481Z,88.87
2023-01-07T08:35:23.780Z,82.23
2023-01-07T08:37:52.067Z,79.40
2023-01-07T08:40:20.500Z,73.53
2023-01-07T08:42:48.887Z,72.43
2023-01-07T08:45:18.906Z,77.20
2023-01-07T08:47:48.686Z,70.90
2023-01-07T08:50:17.257Z,72.20
2023-01-07T08:52:47.396Z,74.70
2023-01-07T08:55:16.048Z,76.37
2023-01-07T08:57:44.407Z,74.37
2023-01-07T09:00:15.756Z,67.20
2023-01-07T09:02:45.944Z,69.63
2023-01-07T09:05:14.304Z,65.30
2023-01-07T09:07:42.660Z,63.10
2023-01-07T09:10:11.183Z,64.10
2023-01-07T09:12:39.523Z,53.93
2023-01-07T09:15:09.166Z,55.73
2023-01-07T09:17:37.456Z,50.37
2023-01-07T09:20:08.382Z,52.80
2023-01-07T09:22:37.291Z,49.47
2023-01-07T09:25:06.042Z,50.47
2023-01-07T09:27:34.529Z,44.50
2023-01-07T09:30:03.109Z,47.90
2023-01-07T09:32:31.527Z,44.20
2023-01-07T09:34:59.806Z,46.67
2023-01-07T09:37:29.637Z,43.43
2023-01-07T09:39:57.905Z,56.67
2023-01-07T09:42:29.846Z,49.23
2023-01-07T09:45:05.137Z,41.90
2023-01-07T09:47:34.890Z,55.27
2023-01-07T09:50:05.140Z,57.30
2023-01-07T09:52:37.063Z,39.10
2023-01-07T09:55:09.287Z,36.87
2023-01-07T09:57:37.667Z,39.70
2023-01-07T10:00:11.339Z,36.13
2023-01-07T10:02:43.770Z,38.17
2023-01-07T10:05:22.489Z,33.80
2023-01-07T10:07:54.317Z,27.33
2023-01-07T10:10:46.006Z,24.93
2023-01-07T10:13:24.177Z,26.07
2023-01-07T10:15:59.167Z,26.60
2023-01-07T10:18:37.039Z,25.13
2023-01-07T10:21:12.784Z,32.97
2023-01-07T10:23:43.513Z,22.73
2023-01-07T10:26:18.199Z,24.37
2023-01-07T10:28:47.852Z,27.73
2023-01-07T10:31:18.483Z,26.90
2023-01-07T10:33:47.460Z,22.23
2023-01-07T10:36:21.215Z,22.63
2023-01-07T10:38:54.259Z,20.63
2023-01-07T10:41:24.216Z,20.77
2023-01-07T10:44:00.283Z,17.10
2023-01-07T10:46:35.863Z,17.10
2023-01-07T10:49:20.549Z,18.07
2023-01-07T10:52:12.627Z,19.43
2023-01-07T10:55:06.498Z,19.67
2023-01-07T10:57:34.983Z,15.27
2023-01-07T11:00:05.786Z,14.50
2023-01-07T11:02:34.275Z,16.50
2023-01-07T11:05:02.616Z,12.03
2023-01-07T11:07:34.493Z,11.07
2023-01-07T11:10:05.581Z,13.80
2023-01-07T11:12:38.901Z,13.83
2023-01-07T11:15:09.165Z,16.30
2023-01-07T11:17:38.888Z,13.53
2023-01-07T11:20:08.252Z,11.40
2023-01-07T11:22:38.517Z,13.27
2023-01-07T11:25:29.450Z,14.37
2023-01-07T11:27:59.254Z,12.37
2023-01-07T11:30:28.606Z,13.40
2023-01-07T11:32:59.838Z,13.03
2023-01-07T11:35:29.352Z,15.63
2023-01-07T11:37:57.973Z,13.53
2023-01-07T11:40:29.079Z,17.00
2023-01-07T11:42:58.102Z,16.00
2023-01-07T11:45:27.523Z,17.23
2023-01-07T11:48:00.345Z,14.83
2023-01-07T11:50:30.747Z,11.97
2023-01-07T11:53:00.630Z,10.43
2023-01-07T11:55:30.629Z,11.17
2023-01-07T11:58:28.827Z,10.33
2023-01-07T12:00:47.477Z,9.93
2023-01-07T12:03:15.900Z,9.60
2023-01-07T12:05:45.269Z,8.30
2023-01-07T12:08:20.302Z,7.73
2023-01-07T12:10:54.986Z,7.87
2023-01-07T12:13:25.849Z,8.07
2023-01-07T12:15:55.661Z,7.73
2023-01-07T12:18:47.918Z,8.30
2023-01-07T12:21:42.639Z,9.70
2023-01-07T12:24:31.781Z,9.67
2023-01-07T12:27:04.572Z,9.53
2023-01-07T12:29:39.966Z,8.83
2023-01-07T12:32:15.122Z,7.53
2023-01-07T12:34:49.136Z,8.70
2023-01-07T12:37:25.476Z,8.30
2023-01-07T12:39:57.024Z,8.00
2023-01-07T12:42:28.840Z,7.50
2023-01-07T12:44:58.946Z,7.80
2023-01-07T12:47:30.661Z,8.10
2023-01-07T12:50:03.070Z,8.07
2023-01-07T12:52:37.128Z,7.83
2023-01-07T12:55:08.753Z,8.50
2023-01-07T12:57:39.657Z,8.70
2023-01-07T13:00:13.228Z,12.03
2023-01-07T13:02:48.648Z,9.07
2023-01-07T13:05:18.214Z,9.40
2023-01-07T13:07:49.087Z,9.13
2023-01-07T13:10:19.365Z,8.63
2023-01-07T13:12:49.134Z,8.30
2023-01-07T13:15:22.867Z,8.50
2023-01-07T13:17:51.714Z,9.30
2023-01-07T13:20:34.471Z,8.87
2023-01-07T13:23:02.934Z,7.70
2023-01-07T13:25:38.931Z,8.07
2023-01-07T13:28:20.117Z,7.60
2023-01-07T13:31:04.763Z,8.07
2023-01-07T13:33:35.867Z,7.83
2023-01-07T13:36:09.868Z,7.90
2023-01-07T13:38:51.063Z,7.90
2023-01-07T13:41:26.461Z,10.53
2023-01-07T13:44:07.857Z,10.03
2023-01-07T13:46:37.409Z,9.40
2023-01-07T13:49:05.768Z,8.20
2023-01-07T13:51:35.031Z,8.33
2023-01-07T13:54:03.441Z,8.20
2023-01-07T13:56:39.849Z,6.83
2023-01-07T13:59:48.794Z,7.73
2023-01-07T14:02:22.033Z,9.27
2023-01-07T14:04:52.127Z,11.30
2023-01-07T14:07:20.643Z,11.53
2023-01-07T14:09:49.018Z,9.97
2023-01-07T14:12:47.104Z,11.33
2023-01-07T14:15:54.976Z,9.40
2023-01-07T14:18:58.918Z,9.40
2023-01-07T14:21:57.380Z,10.63
2023-01-07T14:24:50.396Z,9.60
2023-01-07T14:27:34.417Z,10.10
2023-01-07T14:30:16.048Z,10.27
2023-01-07T14:32:46.702Z,11.97
2023-01-07T14:35:27.994Z,13.27
2023-01-07T14:37:56.328Z,14.67
2023-01-07T14:40:50.057Z,15.23
2023-01-07T14:43:49.807Z,17.13
2023-01-07T14:46:45.624Z,18.07
2023-01-07T14:49:58.365Z,20.97
2023-01-07T14:53:11.876Z,23.07
2023-01-07T14:56:03.343Z,22.20
2023-01-07T14:58:43.701Z,21.87
2023-01-07T15:01:42.327Z,22.20
2023-01-07T15:04:40.097Z,18.23
2023-01-07T15:07:13.555Z,18.57
2023-01-07T15:10:01.524Z,16.37
2023-01-07T15:12:48.700Z,14.40
2023-01-07T15:15:37.927Z,14.03
2023-01-07T15:18:08.128Z,14.57
2023-01-07T15:20:44.482Z,13.67
2023-01-07T15:23:15.671Z,14.20
2023-01-07T15:25:47.558Z,14.73
2023-01-07T15:28:19.817Z,13.90
2023-01-07T15:30:52.044Z,13.93
2023-01-07T15:33:48.451Z,14.03
2023-01-07T15:36:16.888Z,12.50
2023-01-07T15:38:50.273Z,13.23
2023-01-07T15:41:31.007Z,12.97
2023-01-07T15:43:59.319Z,13.23
2023-01-07T15:46:27.715Z,12.80
2023-01-07T15:49:19.583Z,11.87
2023-01-07T15:51:49.141Z,12.17
2023-01-07T15:54:34.942Z,11.87
2023-01-07T15:57:10.567Z,12.70
2023-01-07T15:59:42.823Z,12.30
2023-01-07T16:02:24.462Z,13.43
2023-01-07T16:04:53.945Z,13.50
2023-01-07T16:07:24.793Z,12.00
2023-01-07T16:09:54.891Z,12.53
2023-01-07T16:12:31.928Z,11.83
2023-01-07T16:15:00.259Z,11.67
2023-01-07T16:17:28.742Z,11.93
2023-01-07T16:20:21.509Z,11.83
2023-01-07T16:22:49.977Z,12.93
2023-01-07T16:25:23.247Z,12.53
2023-01-07T16:27:52.019Z,13.77
2023-01-07T16:30:20.498Z,12.97
2023-01-07T16:32:48.851Z,13.17
2023-01-07T16:35:20.445Z,13.93
2023-01-07T16:37:49.321Z,13.03
2023-01-07T16:40:24.776Z,13.17
2023-01-07T16:42:53.167Z,13.80
2023-01-07T16:45:29.299Z,13.40
2023-01-07T16:48:17.252Z,13.27
2023-01-07T16:50:47.064Z,14.53
2023-01-07T16:53:26.124Z,13.00
2023-01-07T16:55:56.887Z,13.60
2023-01-07T16:58:33.902Z,15.53
2023-01-07T17:01:02.594Z,16.03
2023-01-07T17:03:31.517Z,17.67
2023-01-07T17:06:01.436Z,15.90
2023-01-07T17:08:29.920Z,16.67
2023-01-07T17:11:01.745Z,17.00
2023-01-07T17:13:35.120Z,17.37
2023-01-07T17:16:18.054Z,18.20
2023-01-07T17:18:46.392Z,17.20
2023-01-07T17:21:33.129Z,17.83
2023-01-07T17:24:01.473Z,18.70
2023-01-07T17:26:40.646Z,18.73
2023-01-07T17:29:13.226Z,17.67
2023-01-07T17:31:41.819Z,17.30
2023-01-07T17:34:11.189Z,17.23
2023-01-07T17:36:39.576Z,17.20
2023-01-07T17:39:08.005Z,16.53
2023-01-07T17:41:55.138Z,15.90
2023-01-07T17:44:23.459Z,18.47
2023-01-07T17:46:51.765Z,19.07
2023-01-07T17:49:20.736Z,18.83
2023-01-07T17:51:49.450Z,19.23
2023-01-07T17:54:20.253Z,19.63
2023-01-07T17:56:50.453Z,19.40
2023-01-07T17:59:19.816Z,20.03
2023-01-07T18:01:48.602Z,20.53
2023-01-07T18:04:17.712Z,21.57
2023-01-07T18:06:46.092Z,21.00
2023-01-07T18:09:14.577Z,22.37
2023-01-07T18:12:02.352Z,20.57
2023-01-07T18:14:32.668Z,20.90
2023-01-07T18:17:01.492Z,22.60
2023-01-07T18:19:29.821Z,22.63
2023-01-07T18:21:58.162Z,21.40
2023-01-07T18:24:26.521Z,23.53
2023-01-07T18:26:56.549Z,24.33
2023-01-07T18:29:25.103Z,21.83
2023-01-07T18:31:54.928Z,20.13
2023-01-07T18:34:23.313Z,21.57
2023-01-07T18:36:51.740Z,21.87
2023-01-07T18:39:20.915Z,20.57
2023-01-07T18:41:50.281Z,21.43
2023-01-07T18:44:18.858Z,23.23
2023-01-07T18:46:47.278Z,23.93
2023-01-07T18:49:17.191Z,27.20
2023-01-07T18:51:46.781Z,27.67
2023-01-07T18:54:15.181Z,26.50
2023-01-07T18:56:45.801Z,27.47
2023-01-07T18:59:14.591Z,24.57
2023-01-07T19:01:43.206Z,25.23
2023-01-07T19:04:11.872Z,25.33
2023-01-07T19:06:41.836Z,23.93
2023-01-07T19:09:10.130Z,25.07
2023-01-07T19:11:38.707Z,24.13
2023-01-07T19:14:07.014Z,24.17
2023-01-07T19:16:37.123Z,24.27
2023-01-07T19:19:06.698Z,24.57
2023-01-07T19:21:35.111Z,25.60
2023-01-07T19:24:05.508Z,24.93
2023-01-07T19:26:35.417Z,25.63
2023-01-07T19:29:04.472Z,23.57
2023-01-07T19:31:32.873Z,26.40
2023-01-07T19:34:02.932Z,28.27
2023-01-07T19:36:31.395Z,32.60
2023-01-07T19:38:59.679Z,31.33
2023-01-07T19:41:29.524Z,32.93
2023-01-07T19:43:59.425Z,33.20
2023-01-07T19:46:27.786Z,31.67
2023-01-07T19:48:56.162Z,31.57
2023-01-07T19:51:24.482Z,32.43
2023-01-07T19:53:52.914Z,31.63
2023-01-07T19:56:21.223Z,33.27
2023-01-07T19:58:53.223Z,35.63
2023-01-07T20:01:24.514Z,36.63
2023-01-07T20:03:53.322Z,39.80
2023-01-07T20:06:23.051Z,41.10
2023-01-07T20:08:53.672Z,42.47
2023-01-07T20:11:22.031Z,43.23
2023-01-07T20:13:52.117Z,42.00
2023-01-07T20:16:21.982Z,42.93
2023-01-07T20:18:50.955Z,45.73
2023-01-07T20:21:20.063Z,46.20
2023-01-07T20:23:48.694Z,47.30
2023-01-07T20:26:18.095Z,49.57
2023-01-07T20:28:46.483Z,52.10
2023-01-07T20:31:17.421Z,49.47
2023-01-07T20:33:45.872Z,53.40
2023-01-07T20:36:15.156Z,52.83
2023-01-07T20:38:43.499Z,51.83
2023-01-07T20:41:14.508Z,50.50
2023-01-07T20:43:43.385Z,52.47
2023-01-07T20:46:11.849Z,51.33
2023-01-07T20:48:41.611Z,52.60
2023-01-07T20:51:10.099Z,54.67
2023-01-07T20:53:38.507Z,53.70
2023-01-07T20:56:07.469Z,52.93
2023-01-07T20:58:36.587Z,51.00
2023-01-07T21:01:05.157Z,53.97
2023-01-07T21:03:33.762Z,56.17
2023-01-07T21:06:03.469Z,55.87
2023-01-07T21:08:31.791Z,53.53
2023-01-07T21:11:00.117Z,56.73
2023-01-07T21:13:28.551Z,53.97
2023-01-07T21:16:02.664Z,55.37
2023-01-07T21:18:31.114Z,54.60
2023-01-07T21:20:59.501Z,53.90
2023-01-07T21:23:29.369Z,55.90
2023-01-07T21:25:57.720Z,57.63
2023-01-07T21:28:26.055Z,60.07
2023-01-07T21:30:54.408Z,61.53
2023-01-07T21:33:22.760Z,62.43
2023-01-07T21:35:51.051Z,59.30
2023-01-07T21:38:19.575Z,60.33
2023-01-07T21:40:49.266Z,61.23
2023-01-07T21:43:17.565Z,61.97
2023-01-07T21:45:46.385Z,64.80
2023-01-07T21:48:14.679Z,60.90
2023-01-07T21:50:42.993Z,59.50
2023-01-07T21:53:11.399Z,57.70
2023-01-07T21:55:40.786Z,60.33
2023-01-07T21:58:10.557Z,56.73
2023-01-07T22:00:38.897Z,59.00
2023-01-07T22:03:07.228Z,58.47
2023-01-07T22:05:35.556Z,55.50
2023-01-07T22:08:03.929Z,54.50
2023-01-07T22:10:32.229Z,52.83
2023-01-07T22:13:00.539Z,53.53
2023-01-07T22:15:31.031Z,54.67
2023-01-07T22:17:59.374Z,53.30
2023-01-07T22:20:27.874Z,53.80
2023-01-07T22:22:56.246Z,52.83
2023-01-07T22:25:24.649Z,51.23
2023-01-07T22:27:53.325Z,52.53
2023-01-07T22:30:22.079Z,52.37
2023-01-07T22:32:51.769Z,52.17
2023-01-07T22:35:20.053Z,51.63
2023-01-07T22:37:48.454Z,50.30
2023-01-07T22:40:16.743Z,50.10
2023-01-07T22:42:45.980Z,50.40
2023-01-07T22:45:16.472Z,50.20
2023-01-07T22:47:46.683Z,47.97
2023-01-07T22:50:16.372Z,46.53
2023-01-07T22:52:44.684Z,48.13
2023-01-07T22:55:13.017Z,47.67
2023-01-07T22:57:41.580Z,44.80
2023-01-07T23:00:15.129Z,44.03
2023-01-07T23:02:43.470Z,41.77
2023-01-07T23:05:11.870Z,40.83
2023-01-07T23:07:41.879Z,38.40
2023-01-07T23:10:11.024Z,35.13
2023-01-07T23:12:39.582Z,35.10
2023-01-07T23:15:08.914Z,35.70
2023-01-07T23:17:37.324Z,35.63
2023-01-07T23:20:06.311Z,34.77
2023-01-07T23:22:34.694Z,35.17
2023-01-07T23:25:04.549Z,34.33
2023-01-07T23:27:32.977Z,32.80
2023-01-07T23:30:01.321Z,33.70
2023-01-07T23:32:30.002Z,33.77
2023-01-07T23:34:58.321Z,31.90
2023-01-07T23:37:26.729Z,29.33
2023-01-07T23:39:55.080Z,30.17
2023-01-07T23:42:24.968Z,30.03
2023-01-07T23:44:53.957Z,28.13
2023-01-07T23:47:22.316Z,28.50
2023-01-07T23:49:50.659Z,28.53
2023-01-07T23:52:19.238Z,27.27
2023-01-07T23:54:47.496Z,27.53
2023-01-07T23:57:15.812Z,28.63
2023-01-07T23:59:45.560Z,27.60
